sensor_id;sensor_type;location;lat;lon;timestamp;pressure;altitude;pressure_sealevel;temperature
72054;BMP280;59918;51.280;7.950;2023-04-03T00:00:06;99204.50;;;0.29
72054;BMP280;59918;51.280;7.950;2023-04-03T00:02:31;99202.28;;;0.24
72054;BMP280;59918;51.280;7.950;2023-04-03T00:04:56;99200.97;;;0.19
72054;BMP280;59918;51.280;7.950;2023-04-03T00:07:22;99204.66;;;0.15
72054;BMP280;59918;51.280;7.950;2023-04-03T00:09:47;99204.16;;;0.10
72054;BMP280;59918;51.280;7.950;2023-04-03T00:12:15;99210.56;;;0.03
72054;BMP280;59918;51.280;7.950;2023-04-03T00:14:40;99205.13;;;-0.03
72054;BMP280;59918;51.280;7.950;2023-04-03T00:17:05;99207.22;;;-0.10
72054;BMP280;59918;51.280;7.950;2023-04-03T00:19:30;99216.78;;;-0.13
72054;BMP280;59918;51.280;7.950;2023-04-03T00:21:56;99212.00;;;-0.18
72054;BMP280;59918;51.280;7.950;2023-04-03T00:24:21;99211.44;;;-0.21
72054;BMP280;59918;51.280;7.950;2023-04-03T00:26:46;99214.94;;;-0.24
72054;BMP280;59918;51.280;7.950;2023-04-03T00:29:11;99210.13;;;-0.27
72054;BMP280;59918;51.280;7.950;2023-04-03T00:31:36;99205.97;;;-0.28
72054;BMP280;59918;51.280;7.950;2023-04-03T00:34:01;99209.31;;;-0.27
72054;BMP280;59918;51.280;7.950;2023-04-03T00:36:26;99206.97;;;-0.30
72054;BMP280;59918;51.280;7.950;2023-04-03T00:38:52;99203.16;;;-0.36
72054;BMP280;59918;51.280;7.950;2023-04-03T00:41:17;99205.09;;;-0.39
72054;BMP280;59918;51.280;7.950;2023-04-03T00:43:42;99206.91;;;-0.41
72054;BMP280;59918;51.280;7.950;2023-04-03T00:46:07;99214.69;;;-0.44
72054;BMP280;59918;51.280;7.950;2023-04-03T00:48:34;99219.03;;;-0.46
72054;BMP280;59918;51.280;7.950;2023-04-03T00:51:00;99205.69;;;-0.48
72054;BMP280;59918;51.280;7.950;2023-04-03T00:53:31;99215.09;;;-0.50
72054;BMP280;59918;51.280;7.950;2023-04-03T00:55:57;99226.63;;;-0.46
72054;BMP280;59918;51.280;7.950;2023-04-03T00:58:25;99214.59;;;-0.42
72054;BMP280;59918;51.280;7.950;2023-04-03T01:00:54;99220.88;;;-0.48
72054;BMP280;59918;51.280;7.950;2023-04-03T01:03:20;99217.00;;;-0.53
72054;BMP280;59918;51.280;7.950;2023-04-03T01:05:45;99219.06;;;-0.58
72054;BMP280;59918;51.280;7.950;2023-04-03T01:08:10;99220.06;;;-0.61
72054;BMP280;59918;51.280;7.950;2023-04-03T01:10:35;99220.25;;;-0.64
72054;BMP280;59918;51.280;7.950;2023-04-03T01:13:00;99219.56;;;-0.66
72054;BMP280;59918;51.280;7.950;2023-04-03T01:15:26;99220.44;;;-0.67
72054;BMP280;59918;51.280;7.950;2023-04-03T01:17:55;99218.25;;;-0.71
72054;BMP280;59918;51.280;7.950;2023-04-03T01:25:35;99227.94;;;-0.77
72054;BMP280;59918;51.280;7.950;2023-04-03T01:28:01;99227.16;;;-0.78
72054;BMP280;59918;51.280;7.950;2023-04-03T01:30:28;99218.84;;;-0.80
72054;BMP280;59918;51.280;7.950;2023-04-03T01:32:55;99219.03;;;-0.83
72054;BMP280;59918;51.280;7.950;2023-04-03T01:35:20;99222.59;;;-0.85
72054;BMP280;59918;51.280;7.950;2023-04-03T01:37:45;99217.72;;;-0.88
72054;BMP280;59918;51.280;7.950;2023-04-03T01:40:10;99215.41;;;-0.91
72054;BMP280;59918;51.280;7.950;2023-04-03T01:42:35;99217.94;;;-0.91
72054;BMP280;59918;51.280;7.950;2023-04-03T01:45:00;99215.59;;;-0.94
72054;BMP280;59918;51.280;7.950;2023-04-03T01:47:26;99210.75;;;-0.97
72054;BMP280;59918;51.280;7.950;2023-04-03T01:49:51;99219.22;;;-0.98
72054;BMP280;59918;51.280;7.950;2023-04-03T01:52:16;99211.06;;;-1.02
72054;BMP280;59918;51.280;7.950;2023-04-03T01:54:41;99218.03;;;-1.05
72054;BMP280;59918;51.280;7.950;2023-04-03T01:57:06;99224.19;;;-1.09
72054;BMP280;59918;51.280;7.950;2023-04-03T01:59:31;99227.59;;;-1.10
72054;BMP280;59918;51.280;7.950;2023-04-03T02:01:56;99228.53;;;-1.11
72054;BMP280;59918;51.280;7.950;2023-04-03T02:04:22;99233.56;;;-1.11
72054;BMP280;59918;51.280;7.950;2023-04-03T02:06:47;99231.22;;;-1.14
72054;BMP280;59918;51.280;7.950;2023-04-03T02:09:12;99230.63;;;-1.17
72054;BMP280;59918;51.280;7.950;2023-04-03T02:11:37;99234.97;;;-1.19
72054;BMP280;59918;51.280;7.950;2023-04-03T02:14:02;99233.56;;;-1.23
72054;BMP280;59918;51.280;7.950;2023-04-03T02:16:27;99235.44;;;-1.27
72054;BMP280;59918;51.280;7.950;2023-04-03T02:18:53;99233.00;;;-1.28
72054;BMP280;59918;51.280;7.950;2023-04-03T02:21:18;99235.63;;;-1.30
72054;BMP280;59918;51.280;7.950;2023-04-03T02:23:43;99238.38;;;-1.33
72054;BMP280;59918;51.280;7.950;2023-04-03T02:26:12;99240.06;;;-1.33
72054;BMP280;59918;51.280;7.950;2023-04-03T02:28:37;99244.31;;;-1.34
72054;BMP280;59918;51.280;7.950;2023-04-03T02:31:03;99246.81;;;-1.34
72054;BMP280;59918;51.280;7.950;2023-04-03T02:33:29;99247.84;;;-1.36
72054;BMP280;59918;51.280;7.950;2023-04-03T02:35:54;99248.84;;;-1.39
72054;BMP280;59918;51.280;7.950;2023-04-03T02:38:20;99249.94;;;-1.43
72054;BMP280;59918;51.280;7.950;2023-04-03T02:40:45;99243.47;;;-1.46
72054;BMP280;59918;51.280;7.950;2023-04-03T02:43:10;99246.16;;;-1.49
72054;BMP280;59918;51.280;7.950;2023-04-03T02:45:35;99258.06;;;-1.51
72054;BMP280;59918;51.280;7.950;2023-04-03T02:48:00;99254.84;;;-1.53
72054;BMP280;59918;51.280;7.950;2023-04-03T02:50:25;99252.53;;;-1.56
72054;BMP280;59918;51.280;7.950;2023-04-03T02:52:50;99255.94;;;-1.57
72054;BMP280;59918;51.280;7.950;2023-04-03T02:55:16;99254.41;;;-1.60
72054;BMP280;59918;51.280;7.950;2023-04-03T02:57:41;99255.41;;;-1.62
72054;BMP280;59918;51.280;7.950;2023-04-03T03:00:06;99254.72;;;-1.64
72054;BMP280;59918;51.280;7.950;2023-04-03T03:02:31;99250.75;;;-1.68
72054;BMP280;59918;51.280;7.950;2023-04-03T03:04:57;99252.56;;;-1.70
72054;BMP280;59918;51.280;7.950;2023-04-03T03:07:22;99241.75;;;-1.72
72054;BMP280;59918;51.280;7.950;2023-04-03T03:09:47;99248.59;;;-1.74
72054;BMP280;59918;51.280;7.950;2023-04-03T03:12:14;99249.50;;;-1.75
72054;BMP280;59918;51.280;7.950;2023-04-03T03:14:40;99245.25;;;-1.75
72054;BMP280;59918;51.280;7.950;2023-04-03T03:17:05;99243.66;;;-1.76
72054;BMP280;59918;51.280;7.950;2023-04-03T03:19:30;99237.69;;;-1.75
72054;BMP280;59918;51.280;7.950;2023-04-03T03:21:55;99239.50;;;-1.77
72054;BMP280;59918;51.280;7.950;2023-04-03T03:24:20;99243.03;;;-1.79
72054;BMP280;59918;51.280;7.950;2023-04-03T03:26:45;99237.97;;;-1.79
72054;BMP280;59918;51.280;7.950;2023-04-03T03:29:10;99244.13;;;-1.83
72054;BMP280;59918;51.280;7.950;2023-04-03T03:31:36;99241.78;;;-1.86
72054;BMP280;59918;51.280;7.950;2023-04-03T03:34:03;99251.25;;;-1.89
72054;BMP280;59918;51.280;7.950;2023-04-03T03:36:28;99255.66;;;-1.93
72054;BMP280;59918;51.280;7.950;2023-04-03T03:38:53;99252.50;;;-1.96
72054;BMP280;59918;51.280;7.950;2023-04-03T03:41:18;99247.66;;;-1.99
72054;BMP280;59918;51.280;7.950;2023-04-03T03:43:43;99248.63;;;-2.02
72054;BMP280;59918;51.280;7.950;2023-04-03T03:46:09;99254.59;;;-2.03
72054;BMP280;59918;51.280;7.950;2023-04-03T03:48:34;99248.94;;;-2.06
72054;BMP280;59918;51.280;7.950;2023-04-03T03:50:59;99256.56;;;-2.08
72054;BMP280;59918;51.280;7.950;2023-04-03T03:53:24;99249.13;;;-2.09
72054;BMP280;59918;51.280;7.950;2023-04-03T03:55:49;99251.53;;;-2.08
72054;BMP280;59918;51.280;7.950;2023-04-03T03:58:14;99254.88;;;-2.07
72054;BMP280;59918;51.280;7.950;2023-04-03T04:00:39;99254.97;;;-2.09
72054;BMP280;59918;51.280;7.950;2023-04-03T04:03:05;99257.56;;;-2.10
72054;BMP280;59918;51.280;7.950;2023-04-03T04:05:30;99253.53;;;-2.13
72054;BMP280;59918;51.280;7.950;2023-04-03T04:07:57;99249.50;;;-2.15
72054;BMP280;59918;51.280;7.950;2023-04-03T04:10:22;99256.50;;;-2.20
72054;BMP280;59918;51.280;7.950;2023-04-03T04:12:48;99256.69;;;-2.23
72054;BMP280;59918;51.280;7.950;2023-04-03T04:15:13;99252.63;;;-2.25
72054;BMP280;59918;51.280;7.950;2023-04-03T04:17:38;99255.25;;;-2.27
72054;BMP280;59918;51.280;7.950;2023-04-03T04:20:03;99256.94;;;-2.27
72054;BMP280;59918;51.280;7.950;2023-04-03T04:22:28;99262.19;;;-2.30
72054;BMP280;59918;51.280;7.950;2023-04-03T04:24:53;99263.06;;;-2.31
72054;BMP280;59918;51.280;7.950;2023-04-03T04:27:19;99260.75;;;-2.34
72054;BMP280;59918;51.280;7.950;2023-04-03T04:29:44;99269.19;;;-2.35
72054;BMP280;59918;51.280;7.950;2023-04-03T04:32:09;99262.72;;;-2.39
72054;BMP280;59918;51.280;7.950;2023-04-03T04:34:34;99269.47;;;-2.40
72054;BMP280;59918;51.280;7.950;2023-04-03T04:36:59;99273.00;;;-2.42
72054;BMP280;59918;51.280;7.950;2023-04-03T04:39:24;99274.00;;;-2.45
72054;BMP280;59918;51.280;7.950;2023-04-03T04:41:49;99274.88;;;-2.46
72054;BMP280;59918;51.280;7.950;2023-04-03T04:44:14;99277.31;;;-2.44
72054;BMP280;59918;51.280;7.950;2023-04-03T04:46:40;99267.38;;;-2.47
72054;BMP280;59918;51.280;7.950;2023-04-03T04:49:05;99266.59;;;-2.48
72054;BMP280;59918;51.280;7.950;2023-04-03T04:51:30;99270.09;;;-2.50
72054;BMP280;59918;51.280;7.950;2023-04-03T04:53:55;99276.88;;;-2.51
72054;BMP280;59918;51.280;7.950;2023-04-03T04:56:20;99275.16;;;-2.50
72054;BMP280;59918;51.280;7.950;2023-04-03T04:58:45;99274.34;;;-2.51
72054;BMP280;59918;51.280;7.950;2023-04-03T05:01:10;99267.66;;;-2.52
72054;BMP280;59918;51.280;7.950;2023-04-03T05:03:36;99276.13;;;-2.53
72054;BMP280;59918;51.280;7.950;2023-04-03T05:06:01;99277.66;;;-2.50
72054;BMP280;59918;51.280;7.950;2023-04-03T05:08:29;99276.88;;;-2.51
72054;BMP280;59918;51.280;7.950;2023-04-03T05:10:54;99277.75;;;-2.52
72054;BMP280;59918;51.280;7.950;2023-04-03T05:13:19;99287.81;;;-2.52
72054;BMP280;59918;51.280;7.950;2023-04-03T05:15:45;99282.88;;;-2.53
72054;BMP280;59918;51.280;7.950;2023-04-03T05:18:10;99287.03;;;-2.52
72054;BMP280;59918;51.280;7.950;2023-04-03T05:20:35;99294.56;;;-2.52
72054;BMP280;59918;51.280;7.950;2023-04-03T05:23:01;99299.44;;;-2.49
72054;BMP280;59918;51.280;7.950;2023-04-03T05:25:26;99297.63;;;-2.47
72054;BMP280;59918;51.280;7.950;2023-04-03T05:27:51;99299.97;;;-2.44
72054;BMP280;59918;51.280;7.950;2023-04-03T05:30:16;99298.19;;;-2.42
72054;BMP280;59918;51.280;7.950;2023-04-03T05:32:41;99296.47;;;-2.42
72054;BMP280;59918;51.280;7.950;2023-04-03T05:35:07;99306.47;;;-2.40
72054;BMP280;59918;51.280;7.950;2023-04-03T05:37:33;99298.09;;;-2.41
72054;BMP280;59918;51.280;7.950;2023-04-03T05:39:58;99307.34;;;-2.41
72054;BMP280;59918;51.280;7.950;2023-04-03T05:42:23;99307.19;;;-2.38
72054;BMP280;59918;51.280;7.950;2023-04-03T05:44:48;99313.75;;;-2.36
72054;BMP280;59918;51.280;7.950;2023-04-03T05:47:13;99320.31;;;-2.33
72054;BMP280;59918;51.280;7.950;2023-04-03T05:49:41;99312.59;;;-2.30
72054;BMP280;59918;51.280;7.950;2023-04-03T05:52:10;99318.44;;;-2.30
72054;BMP280;59918;51.280;7.950;2023-04-03T05:54:36;99315.03;;;-2.29
72054;BMP280;59918;51.280;7.950;2023-04-03T05:57:01;99318.34;;;-2.28
72054;BMP280;59918;51.280;7.950;2023-04-03T05:59:26;99315.75;;;-2.27
72054;BMP280;59918;51.280;7.950;2023-04-03T06:01:52;99323.19;;;-2.25
72054;BMP280;59918;51.280;7.950;2023-04-03T06:04:17;99326.34;;;-2.22
72054;BMP280;59918;51.280;7.950;2023-04-03T06:06:47;99330.25;;;-2.17
72054;BMP280;59918;51.280;7.950;2023-04-03T06:09:12;99329.78;;;-2.09
72054;BMP280;59918;51.280;7.950;2023-04-03T06:11:38;99330.31;;;-2.04
72054;BMP280;59918;51.280;7.950;2023-04-03T06:14:03;99344.00;;;-1.94
72054;BMP280;59918;51.280;7.950;2023-04-03T06:16:28;99341.22;;;-1.76
72054;BMP280;59918;51.280;7.950;2023-04-03T06:18:53;99339.75;;;-1.52
72054;BMP280;59918;51.280;7.950;2023-04-03T06:21:18;99338.22;;;-1.29
72054;BMP280;59918;51.280;7.950;2023-04-03T06:23:43;99346.97;;;-1.08
72054;BMP280;59918;51.280;7.950;2023-04-03T06:26:09;99344.94;;;-0.89
72054;BMP280;59918;51.280;7.950;2023-04-03T06:28:34;99341.94;;;-0.70
72054;BMP280;59918;51.280;7.950;2023-04-03T06:30:59;99339.75;;;-0.49
72054;BMP280;59918;51.280;7.950;2023-04-03T06:33:24;99343.00;;;-0.35
72054;BMP280;59918;51.280;7.950;2023-04-03T06:35:49;99345.31;;;-0.20
72054;BMP280;59918;51.280;7.950;2023-04-03T06:38:14;99341.69;;;-0.03
72054;BMP280;59918;51.280;7.950;2023-04-03T06:40:39;99340.56;;;0.13
72054;BMP280;59918;51.280;7.950;2023-04-03T06:43:04;99342.97;;;0.27
72054;BMP280;59918;51.280;7.950;2023-04-03T06:45:32;99341.81;;;0.43
72054;BMP280;59918;51.280;7.950;2023-04-03T06:47:57;99335.59;;;0.59
72054;BMP280;59918;51.280;7.950;2023-04-03T06:50:22;99334.22;;;0.78
72054;BMP280;59918;51.280;7.950;2023-04-03T06:52:47;99337.78;;;0.99
72054;BMP280;59918;51.280;7.950;2023-04-03T06:55:13;99337.75;;;1.22
72054;BMP280;59918;51.280;7.950;2023-04-03T06:57:38;99334.50;;;1.44
72054;BMP280;59918;51.280;7.950;2023-04-03T07:00:04;99341.91;;;1.68
72054;BMP280;59918;51.280;7.950;2023-04-03T07:02:29;99344.50;;;1.90
72054;BMP280;59918;51.280;7.950;2023-04-03T07:04:54;99347.06;;;2.12
72054;BMP280;59918;51.280;7.950;2023-04-03T07:07:19;99351.97;;;2.35
72054;BMP280;59918;51.280;7.950;2023-04-03T07:09:44;99347.72;;;2.57
72054;BMP280;59918;51.280;7.950;2023-04-03T07:12:10;99344.44;;;2.77
72054;BMP280;59918;51.280;7.950;2023-04-03T07:14:35;99352.13;;;2.97
72054;BMP280;59918;51.280;7.950;2023-04-03T07:17:00;99353.09;;;3.16
72054;BMP280;59918;51.280;7.950;2023-04-03T07:19:25;99349.09;;;3.34
72054;BMP280;59918;51.280;7.950;2023-04-03T07:21:50;99359.41;;;3.53
72054;BMP280;59918;51.280;7.950;2023-04-03T07:24:15;99360.00;;;3.65
72054;BMP280;59918;51.280;7.950;2023-04-03T07:26:40;99355.28;;;3.81
72054;BMP280;59918;51.280;7.950;2023-04-03T07:29:05;99360.75;;;3.97
72054;BMP280;59918;51.280;7.950;2023-04-03T07:31:31;99360.81;;;4.06
72054;BMP280;59918;51.280;7.950;2023-04-03T07:33:56;99365.16;;;4.25
72054;BMP280;59918;51.280;7.950;2023-04-03T07:36:22;99370.06;;;4.37
72054;BMP280;59918;51.280;7.950;2023-04-03T07:38:47;99369.72;;;4.51
72054;BMP280;59918;51.280;7.950;2023-04-03T07:41:16;99358.59;;;4.61
72054;BMP280;59918;51.280;7.950;2023-04-03T07:43:42;99365.88;;;4.75
72054;BMP280;59918;51.280;7.950;2023-04-03T07:46:07;99365.47;;;4.79
72054;BMP280;59918;51.280;7.950;2023-04-03T07:48:32;99360.41;;;4.89
72054;BMP280;59918;51.280;7.950;2023-04-03T07:51:00;99362.31;;;5.06
72054;BMP280;59918;51.280;7.950;2023-04-03T07:53:26;99361.53;;;5.24
72054;BMP280;59918;51.280;7.950;2023-04-03T07:55:51;99357.22;;;5.43
72054;BMP280;59918;51.280;7.950;2023-04-03T07:58:16;99360.59;;;5.62
72054;BMP280;59918;51.280;7.950;2023-04-03T08:00:42;99369.97;;;5.71
72054;BMP280;59918;51.280;7.950;2023-04-03T08:03:08;99372.94;;;5.85
72054;BMP280;59918;51.280;7.950;2023-04-03T08:05:37;99361.47;;;5.99
72054;BMP280;59918;51.280;7.950;2023-04-03T08:08:03;99355.66;;;6.16
72054;BMP280;59918;51.280;7.950;2023-04-03T08:10:29;99369.06;;;6.27
72054;BMP280;59918;51.280;7.950;2023-04-03T08:12:54;99375.22;;;6.34
72054;BMP280;59918;51.280;7.950;2023-04-03T08:15:19;99378.53;;;6.44
72054;BMP280;59918;51.280;7.950;2023-04-03T08:17:44;99384.03;;;6.49
72054;BMP280;59918;51.280;7.950;2023-04-03T08:20:10;99381.84;;;6.53
72054;BMP280;59918;51.280;7.950;2023-04-03T08:22:35;99380.81;;;6.47
72054;BMP280;59918;51.280;7.950;2023-04-03T08:25:00;99381.47;;;6.49
72054;BMP280;59918;51.280;7.950;2023-04-03T08:27:25;99374.19;;;6.53
72054;BMP280;59918;51.280;7.950;2023-04-03T08:29:50;99375.25;;;6.60
72054;BMP280;59918;51.280;7.950;2023-04-03T08:32:16;99373.97;;;6.74
72054;BMP280;59918;51.280;7.950;2023-04-03T08:34:41;99375.22;;;6.87
72054;BMP280;59918;51.280;7.950;2023-04-03T08:37:06;99362.44;;;7.04
72054;BMP280;59918;51.280;7.950;2023-04-03T08:39:31;99362.69;;;7.11
72054;BMP280;59918;51.280;7.950;2023-04-03T08:41:57;99365.09;;;7.12
72054;BMP280;59918;51.280;7.950;2023-04-03T08:49:45;99376.06;;;7.57
72054;BMP280;59918;51.280;7.950;2023-04-03T08:52:12;99382.69;;;7.67
72054;BMP280;59918;51.280;7.950;2023-04-03T08:54:49;99366.19;;;7.87
72054;BMP280;59918;51.280;7.950;2023-04-03T08:57:14;99375.28;;;8.06
72054;BMP280;59918;51.280;7.950;2023-04-03T08:59:39;99372.91;;;8.22
72054;BMP280;59918;51.280;7.950;2023-04-03T09:02:15;99371.84;;;8.40
72054;BMP280;59918;51.280;7.950;2023-04-03T09:04:43;99375.31;;;8.65
72054;BMP280;59918;51.280;7.950;2023-04-03T09:07:12;99368.28;;;8.67
72054;BMP280;59918;51.280;7.950;2023-04-03T09:09:39;99369.72;;;8.69
72054;BMP280;59918;51.280;7.950;2023-04-03T09:12:13;99377.81;;;8.90
72054;BMP280;59918;51.280;7.950;2023-04-03T09:17:24;99382.19;;;9.05
72054;BMP280;59918;51.280;7.950;2023-04-03T09:19:56;99377.66;;;8.83
72054;BMP280;59918;51.280;7.950;2023-04-03T09:22:25;99384.59;;;8.99
72054;BMP280;59918;51.280;7.950;2023-04-03T09:25:02;99382.88;;;9.23
72054;BMP280;59918;51.280;7.950;2023-04-03T09:27:30;99364.78;;;9.40
72054;BMP280;59918;51.280;7.950;2023-04-03T09:29:56;99365.91;;;9.77
72054;BMP280;59918;51.280;7.950;2023-04-03T09:32:25;99362.28;;;10.33
72054;BMP280;59918;51.280;7.950;2023-04-03T09:34:50;99358.91;;;10.71
72054;BMP280;59918;51.280;7.950;2023-04-03T09:37:33;99352.66;;;11.03
72054;BMP280;59918;51.280;7.950;2023-04-03T09:39:58;99366.56;;;11.39
72054;BMP280;59918;51.280;7.950;2023-04-03T09:42:24;99358.13;;;11.53
72054;BMP280;59918;51.280;7.950;2023-04-03T09:47:27;99342.44;;;12.41
72054;BMP280;59918;51.280;7.950;2023-04-03T09:50:15;99352.75;;;12.84
72054;BMP280;59918;51.280;7.950;2023-04-03T09:52:42;99346.31;;;13.15
72054;BMP280;59918;51.280;7.950;2023-04-03T09:55:10;99348.78;;;13.23
72054;BMP280;59918;51.280;7.950;2023-04-03T09:57:38;99338.28;;;13.93
72054;BMP280;59918;51.280;7.950;2023-04-03T10:00:04;99330.66;;;14.86
72054;BMP280;59918;51.280;7.950;2023-04-03T10:02:36;99330.19;;;15.29
72054;BMP280;59918;51.280;7.950;2023-04-03T10:05:03;99328.59;;;15.22
72054;BMP280;59918;51.280;7.950;2023-04-03T10:10:16;99324.22;;;15.86
72054;BMP280;59918;51.280;7.950;2023-04-03T10:12:41;99328.00;;;16.22
72054;BMP280;59918;51.280;7.950;2023-04-03T10:15:16;99324.03;;;16.70
72054;BMP280;59918;51.280;7.950;2023-04-03T10:17:57;99320.06;;;17.17
72054;BMP280;59918;51.280;7.950;2023-04-03T10:20:27;99317.41;;;17.78
72054;BMP280;59918;51.280;7.950;2023-04-03T10:25:42;99316.03;;;18.18
72054;BMP280;59918;51.280;7.950;2023-04-03T10:28:10;99316.91;;;17.63
72054;BMP280;59918;51.280;7.950;2023-04-03T10:30:51;99305.66;;;17.93
72054;BMP280;59918;51.280;7.950;2023-04-03T10:35:44;99308.69;;;19.26
72054;BMP280;59918;51.280;7.950;2023-04-03T10:43:21;99307.91;;;20.23
72054;BMP280;59918;51.280;7.950;2023-04-03T10:45:59;99298.28;;;20.74
72054;BMP280;59918;51.280;7.950;2023-04-03T10:58:57;99275.44;;;22.48
72054;BMP280;59918;51.280;7.950;2023-04-03T11:01:24;99279.19;;;22.57
72054;BMP280;59918;51.280;7.950;2023-04-03T11:03:52;99275.22;;;22.76
72054;BMP280;59918;51.280;7.950;2023-04-03T11:06:19;99266.25;;;22.46
72054;BMP280;59918;51.280;7.950;2023-04-03T11:11:30;99275.53;;;22.16
72054;BMP280;59918;51.280;7.950;2023-04-03T11:16:41;99275.91;;;22.67
72054;BMP280;59918;51.280;7.950;2023-04-03T11:21:33;99274.56;;;23.11
72054;BMP280;59918;51.280;7.950;2023-04-03T11:24:00;99275.03;;;22.82
72054;BMP280;59918;51.280;7.950;2023-04-03T11:26:31;99259.53;;;23.28
72054;BMP280;59918;51.280;7.950;2023-04-03T11:29:08;99268.41;;;23.53
72054;BMP280;59918;51.280;7.950;2023-04-03T11:31:38;99247.44;;;23.58
72054;BMP280;59918;51.280;7.950;2023-04-03T11:36:54;99252.13;;;23.92
72054;BMP280;59918;51.280;7.950;2023-04-03T11:39:28;99241.94;;;24.01
72054;BMP280;59918;51.280;7.950;2023-04-03T11:41:54;99241.38;;;24.40
72054;BMP280;59918;51.280;7.950;2023-04-03T11:44:36;99244.81;;;24.55
72054;BMP280;59918;51.280;7.950;2023-04-03T11:47:02;99234.28;;;24.55
72054;BMP280;59918;51.280;7.950;2023-04-03T11:57:46;99232.66;;;24.34
72054;BMP280;59918;51.280;7.950;2023-04-03T12:02:55;99219.41;;;25.79
72054;BMP280;59918;51.280;7.950;2023-04-03T12:05:25;99219.00;;;26.30
72054;BMP280;59918;51.280;7.950;2023-04-03T12:10:35;99210.28;;;27.20
72054;BMP280;59918;51.280;7.950;2023-04-03T12:13:00;99215.31;;;27.21
72054;BMP280;59918;51.280;7.950;2023-04-03T12:20:53;99195.06;;;27.91
72054;BMP280;59918;51.280;7.950;2023-04-03T12:23:56;99190.47;;;28.66
72054;BMP280;59918;51.280;7.950;2023-04-03T12:26:20;99191.41;;;29.25
72054;BMP280;59918;51.280;7.950;2023-04-03T12:28:46;99179.59;;;29.49
72054;BMP280;59918;51.280;7.950;2023-04-03T12:31:11;99190.78;;;29.15
72054;BMP280;59918;51.280;7.950;2023-04-03T12:36:08;99187.28;;;29.33
72054;BMP280;59918;51.280;7.950;2023-04-03T12:45:58;99163.72;;;29.63
72054;BMP280;59918;51.280;7.950;2023-04-03T12:48:25;99160.66;;;30.09
72054;BMP280;59918;51.280;7.950;2023-04-03T12:50:50;99167.84;;;30.09
72054;BMP280;59918;51.280;7.950;2023-04-03T12:53:18;99162.13;;;30.15
72054;BMP280;59918;51.280;7.950;2023-04-03T12:55:44;99156.44;;;30.08
72054;BMP280;59918;51.280;7.950;2023-04-03T13:00:46;99150.78;;;30.85
72054;BMP280;59918;51.280;7.950;2023-04-03T13:03:21;99149.88;;;30.54
72054;BMP280;59918;51.280;7.950;2023-04-03T13:05:47;99148.69;;;30.60
72054;BMP280;59918;51.280;7.950;2023-04-03T13:08:12;99145.31;;;30.68
72054;BMP280;59918;51.280;7.950;2023-04-03T13:11:21;99142.88;;;30.93
72054;BMP280;59918;51.280;7.950;2023-04-03T13:13:27;99140.31;;;31.92
72054;BMP280;59918;51.280;7.950;2023-04-03T13:15:52;99135.53;;;32.44
72054;BMP280;59918;51.280;7.950;2023-04-03T13:18:28;99130.84;;;33.00
72054;BMP280;59918;51.280;7.950;2023-04-03T13:20:56;99137.44;;;32.94
72054;BMP280;59918;51.280;7.950;2023-04-03T13:23:22;99126.44;;;32.78
72054;BMP280;59918;51.280;7.950;2023-04-03T13:25:47;99129.88;;;32.79
72054;BMP280;59918;51.280;7.950;2023-04-03T13:28:14;99129.22;;;33.15
72054;BMP280;59918;51.280;7.950;2023-04-03T13:30:40;99132.00;;;33.81
72054;BMP280;59918;51.280;7.950;2023-04-03T13:33:17;99124.69;;;33.61
72054;BMP280;59918;51.280;7.950;2023-04-03T13:35:44;99123.63;;;33.91
72054;BMP280;59918;51.280;7.950;2023-04-03T13:40:56;99123.84;;;34.35
72054;BMP280;59918;51.280;7.950;2023-04-03T13:43:29;99114.03;;;34.59
72054;BMP280;59918;51.280;7.950;2023-04-03T13:48:19;99110.03;;;33.76
72054;BMP280;59918;51.280;7.950;2023-04-03T13:50:52;99107.69;;;33.74
72054;BMP280;59918;51.280;7.950;2023-04-03T13:53:17;99104.72;;;33.76
72054;BMP280;59918;51.280;7.950;2023-04-03T13:58:29;99095.78;;;34.00
72054;BMP280;59918;51.280;7.950;2023-04-03T14:01:41;99090.72;;;34.68
72054;BMP280;59918;51.280;7.950;2023-04-03T14:06:06;99071.00;;;35.60
72054;BMP280;59918;51.280;7.950;2023-04-03T14:08:31;99083.69;;;35.63
72054;BMP280;59918;51.280;7.950;2023-04-03T14:10:56;99067.63;;;35.51
72054;BMP280;59918;51.280;7.950;2023-04-03T14:13:21;99075.78;;;35.67
72054;BMP280;59918;51.280;7.950;2023-04-03T14:15:47;99077.81;;;35.46
72054;BMP280;59918;51.280;7.950;2023-04-03T14:18:13;99072.44;;;35.46
72054;BMP280;59918;51.280;7.950;2023-04-03T14:20:39;99071.00;;;35.60
72054;BMP280;59918;51.280;7.950;2023-04-03T14:23:04;99069.09;;;35.73
72054;BMP280;59918;51.280;7.950;2023-04-03T14:25:29;99062.97;;;35.60
72054;BMP280;59918;51.280;7.950;2023-04-03T14:27:54;99074.75;;;34.80
72054;BMP280;59918;51.280;7.950;2023-04-03T14:30:25;99068.72;;;34.51
72054;BMP280;59918;51.280;7.950;2023-04-03T14:32:51;99063.00;;;34.72
72054;BMP280;59918;51.280;7.950;2023-04-03T14:35:16;99047.84;;;35.08
72054;BMP280;59918;51.280;7.950;2023-04-03T14:37:42;99043.31;;;35.21
72054;BMP280;59918;51.280;7.950;2023-04-03T14:40:07;99049.00;;;35.67
72054;BMP280;59918;51.280;7.950;2023-04-03T14:42:34;99045.72;;;36.20
72054;BMP280;59918;51.280;7.950;2023-04-03T14:45:00;99046.06;;;36.19
72054;BMP280;59918;51.280;7.950;2023-04-03T14:47:28;99038.16;;;36.22
72054;BMP280;59918;51.280;7.950;2023-04-03T14:49:53;99035.09;;;36.51
72054;BMP280;59918;51.280;7.950;2023-04-03T14:52:20;99033.09;;;36.60
72054;BMP280;59918;51.280;7.950;2023-04-03T14:54:46;99037.00;;;36.23
72054;BMP280;59918;51.280;7.950;2023-04-03T14:57:11;99032.19;;;35.78
72054;BMP280;59918;51.280;7.950;2023-04-03T14:59:38;99033.72;;;36.03
72054;BMP280;59918;51.280;7.950;2023-04-03T15:02:10;99027.13;;;36.39
72054;BMP280;59918;51.280;7.950;2023-04-03T15:04:38;99018.78;;;36.83
72054;BMP280;59918;51.280;7.950;2023-04-03T15:07:03;99024.13;;;36.98
72054;BMP280;59918;51.280;7.950;2023-04-03T15:09:28;99026.06;;;36.28
72054;BMP280;59918;51.280;7.950;2023-04-03T15:11:54;99038.75;;;35.69
72054;BMP280;59918;51.280;7.950;2023-04-03T15:14:19;99033.25;;;34.94
72054;BMP280;59918;51.280;7.950;2023-04-03T15:16:44;99033.56;;;34.93
72054;BMP280;59918;51.280;7.950;2023-04-03T15:19:10;99020.63;;;35.27
72054;BMP280;59918;51.280;7.950;2023-04-03T15:21:36;99027.06;;;35.73
72054;BMP280;59918;51.280;7.950;2023-04-03T15:24:01;99029.28;;;35.59
72054;BMP280;59918;51.280;7.950;2023-04-03T15:26:26;99038.22;;;35.39
72054;BMP280;59918;51.280;7.950;2023-04-03T15:28:51;99027.06;;;35.26
72054;BMP280;59918;51.280;7.950;2023-04-03T15:31:16;99023.59;;;35.61
72054;BMP280;59918;51.280;7.950;2023-04-03T15:33:42;99021.63;;;35.46
72054;BMP280;59918;51.280;7.950;2023-04-03T15:36:07;99040.53;;;35.17
72054;BMP280;59918;51.280;7.950;2023-04-03T15:38:32;99027.72;;;35.11